Ana Sayfa
METAR-TAF:

METAR-TAF

Havaalanları :

Ouagadougou, Burkina Faso

Enlem: 12-21N, Boylam: 001-31W, yükseklik: 316 m

Güncel hava durumu gözlemi

Rapor saat 08:00 UTC de 34 dakika önce yapıldı.
Rüzgar güneybatıdan 8 kt
Sıcaklık 28°C
Nem 70%
Basınç 1014 hPa
Görüş mesafesi 10 km veya daha fazla
1500 m altında bulut yok ve kümülonimbus yok

METAR: DFFD 240800Z 22008KT CAVOK 28/22 Q1014 NOSIG

Saat: 08:34 (08:34 UTC)

Tahmin

Rapor saat 05:00 UTC de 3 saat ve 34 dakika önce yapıldı.
Ayın 24'si saat 06 UTC'den ayın 25'si saat 12 UTC'ye kadar geçerli Tahmin
Rüzgar batı/güneybatıdan 8 kt
Görüş mesafesi 10 km veya daha fazla
2000 ft yükseklikte az bulutlu
Olasılık 30% :
Geçici
ayın 24'si saat 12 UTC'den ayın 24'si saat 20 UTC'ye kadar
Görüş mesafesi: 4000 m
2000 ft yükseklikte parçalı bulutlu
3300 ft yükseklikte parçalı bulutlu, Kümülonimbus.
gök gürültülü fırtına, yağmur

TAF: DFFD 240500Z 2406/2512 24008KT 9999 FEW020 PROB30 TEMPO 2412/2420 4000 TSRA SCT020 SCT033CB

4.000'den fazla havaalanı için hava durumu gözlemleri ve tahminleri (METAR ve TAF raporları).

Kullanılabilir istasyonlar harita üzerinde sarı ve kırmızı noktalarla gösterilir.

İstasyonun adını görmek için fareyi noktanın üzerinde gezdirin.

Sonrasında hava gözlem ve tahminlerini görmek için tıklayın.

Haritayı değiştirmek için: yaklaştırmak için siyah artı işaretli yeşil düğmeye ve uzaklaştırmak için de eksi işaretli düğmeye hızla tıklayın; bitişik haritalar için yeşil okları kullanın.


METAR-TAF: